sensor_id;sensor_type;location;lat;lon;timestamp;pressure;altitude;pressure_sealevel;temperature
11849;BMP180;5983;49.966;8.052;2022-10-16T00:01:29;100220.00;;;14.40
11849;BMP180;5983;49.966;8.052;2022-10-16T00:03:59;100231.00;;;14.30
11849;BMP180;5983;49.966;8.052;2022-10-16T00:06:28;100225.00;;;14.30
11849;BMP180;5983;49.966;8.052;2022-10-16T00:08:55;100234.00;;;14.30
11849;BMP180;5983;49.966;8.052;2022-10-16T00:11:25;100226.00;;;14.20
11849;BMP180;5983;49.966;8.052;2022-10-16T00:13:58;100221.00;;;14.20
11849;BMP180;5983;49.966;8.052;2022-10-16T00:16:28;100234.00;;;14.20
11849;BMP180;5983;49.966;8.052;2022-10-16T00:18:55;100220.00;;;14.20
11849;BMP180;5983;49.966;8.052;2022-10-16T00:21:26;100216.00;;;14.20
11849;BMP180;5983;49.966;8.052;2022-10-16T00:23:55;100230.00;;;14.20
11849;BMP180;5983;49.966;8.052;2022-10-16T00:26:23;100228.00;;;14.20
11849;BMP180;5983;49.966;8.052;2022-10-16T00:28:51;100223.00;;;14.20
11849;BMP180;5983;49.966;8.052;2022-10-16T00:31:20;100224.00;;;14.20
11849;BMP180;5983;49.966;8.052;2022-10-16T00:33:49;100212.00;;;14.20
11849;BMP180;5983;49.966;8.052;2022-10-16T00:36:19;100219.00;;;14.20
11849;BMP180;5983;49.966;8.052;2022-10-16T00:38:47;100221.00;;;14.20
11849;BMP180;5983;49.966;8.052;2022-10-16T00:41:18;100231.00;;;14.30
11849;BMP180;5983;49.966;8.052;2022-10-16T00:43:50;100224.00;;;14.30
11849;BMP180;5983;49.966;8.052;2022-10-16T00:46:22;100237.00;;;14.20
11849;BMP180;5983;49.966;8.052;2022-10-16T00:48:56;100241.00;;;14.20
11849;BMP180;5983;49.966;8.052;2022-10-16T00:51:30;100244.00;;;14.20
11849;BMP180;5983;49.966;8.052;2022-10-16T00:53:59;100248.00;;;14.20
11849;BMP180;5983;49.966;8.052;2022-10-16T00:56:27;100251.00;;;14.20
11849;BMP180;5983;49.966;8.052;2022-10-16T00:58:54;100249.00;;;14.20
11849;BMP180;5983;49.966;8.052;2022-10-16T01:01:21;100249.00;;;14.20
11849;BMP180;5983;49.966;8.052;2022-10-16T01:03:48;100242.00;;;14.30
11849;BMP180;5983;49.966;8.052;2022-10-16T01:06:37;100253.00;;;14.30
11849;BMP180;5983;49.966;8.052;2022-10-16T01:09:16;100250.00;;;14.30
11849;BMP180;5983;49.966;8.052;2022-10-16T01:11:59;100239.00;;;14.30
11849;BMP180;5983;49.966;8.052;2022-10-16T01:14:40;100235.00;;;14.30
11849;BMP180;5983;49.966;8.052;2022-10-16T01:17:15;100232.00;;;14.30
11849;BMP180;5983;49.966;8.052;2022-10-16T01:20:10;100237.00;;;14.20
11849;BMP180;5983;49.966;8.052;2022-10-16T01:22:50;100242.00;;;14.20
11849;BMP180;5983;49.966;8.052;2022-10-16T01:25:36;100248.00;;;14.20
11849;BMP180;5983;49.966;8.052;2022-10-16T01:28:09;100251.00;;;14.20
11849;BMP180;5983;49.966;8.052;2022-10-16T01:30:40;100242.00;;;14.20
11849;BMP180;5983;49.966;8.052;2022-10-16T01:33:14;100248.00;;;14.30
11849;BMP180;5983;49.966;8.052;2022-10-16T01:35:47;100244.00;;;14.30
11849;BMP180;5983;49.966;8.052;2022-10-16T01:38:26;100261.00;;;14.30
11849;BMP180;5983;49.966;8.052;2022-10-16T01:41:06;100272.00;;;14.30
11849;BMP180;5983;49.966;8.052;2022-10-16T01:43:41;100277.00;;;14.30
11849;BMP180;5983;49.966;8.052;2022-10-16T01:46:13;100276.00;;;14.30
11849;BMP180;5983;49.966;8.052;2022-10-16T01:48:41;100276.00;;;14.30
11849;BMP180;5983;49.966;8.052;2022-10-16T01:51:12;100262.00;;;14.30
11849;BMP180;5983;49.966;8.052;2022-10-16T01:53:41;100265.00;;;14.30
11849;BMP180;5983;49.966;8.052;2022-10-16T01:56:12;100263.00;;;14.30
11849;BMP180;5983;49.966;8.052;2022-10-16T01:58:47;100263.00;;;14.30
11849;BMP180;5983;49.966;8.052;2022-10-16T02:01:19;100277.00;;;14.30
11849;BMP180;5983;49.966;8.052;2022-10-16T02:03:51;100271.00;;;14.30
11849;BMP180;5983;49.966;8.052;2022-10-16T02:06:20;100282.00;;;14.30
11849;BMP180;5983;49.966;8.052;2022-10-16T02:08:47;100283.00;;;14.40
11849;BMP180;5983;49.966;8.052;2022-10-16T02:11:14;100277.00;;;14.30
11849;BMP180;5983;49.966;8.052;2022-10-16T02:13:48;100291.00;;;14.40
11849;BMP180;5983;49.966;8.052;2022-10-16T02:16:16;100287.00;;;14.40
11849;BMP180;5983;49.966;8.052;2022-10-16T02:18:43;100280.00;;;14.40
11849;BMP180;5983;49.966;8.052;2022-10-16T02:21:18;100285.00;;;14.40
11849;BMP180;5983;49.966;8.052;2022-10-16T02:23:54;100294.00;;;14.40
11849;BMP180;5983;49.966;8.052;2022-10-16T02:26:30;100281.00;;;14.40
11849;BMP180;5983;49.966;8.052;2022-10-16T02:29:07;100287.00;;;14.40
11849;BMP180;5983;49.966;8.052;2022-10-16T02:31:41;100297.00;;;14.40
11849;BMP180;5983;49.966;8.052;2022-10-16T02:34:12;100299.00;;;14.40
11849;BMP180;5983;49.966;8.052;2022-10-16T02:36:41;100294.00;;;14.40
11849;BMP180;5983;49.966;8.052;2022-10-16T02:39:11;100284.00;;;14.40
11849;BMP180;5983;49.966;8.052;2022-10-16T02:41:38;100288.00;;;14.40
11849;BMP180;5983;49.966;8.052;2022-10-16T02:44:06;100278.00;;;14.40
11849;BMP180;5983;49.966;8.052;2022-10-16T02:46:33;100288.00;;;14.40
11849;BMP180;5983;49.966;8.052;2022-10-16T02:49:00;100285.00;;;14.40
11849;BMP180;5983;49.966;8.052;2022-10-16T02:51:27;100287.00;;;14.40
11849;BMP180;5983;49.966;8.052;2022-10-16T02:53:54;100283.00;;;14.40
11849;BMP180;5983;49.966;8.052;2022-10-16T02:56:21;100297.00;;;14.50
11849;BMP180;5983;49.966;8.052;2022-10-16T02:58:48;100295.00;;;14.40
11849;BMP180;5983;49.966;8.052;2022-10-16T03:01:17;100289.00;;;14.40
11849;BMP180;5983;49.966;8.052;2022-10-16T03:03:44;100296.00;;;14.50
11849;BMP180;5983;49.966;8.052;2022-10-16T03:06:11;100293.00;;;14.50
11849;BMP180;5983;49.966;8.052;2022-10-16T03:08:38;100298.00;;;14.50
11849;BMP180;5983;49.966;8.052;2022-10-16T03:11:05;100309.00;;;14.50
11849;BMP180;5983;49.966;8.052;2022-10-16T03:13:32;100307.00;;;14.40
11849;BMP180;5983;49.966;8.052;2022-10-16T03:15:59;100297.00;;;14.40
11849;BMP180;5983;49.966;8.052;2022-10-16T03:18:27;100293.00;;;14.50
11849;BMP180;5983;49.966;8.052;2022-10-16T03:20:54;100293.00;;;14.50
11849;BMP180;5983;49.966;8.052;2022-10-16T03:23:21;100288.00;;;14.50
11849;BMP180;5983;49.966;8.052;2022-10-16T03:25:48;100293.00;;;14.50
11849;BMP180;5983;49.966;8.052;2022-10-16T03:28:14;100299.00;;;14.50
11849;BMP180;5983;49.966;8.052;2022-10-16T03:30:43;100301.00;;;14.50
11849;BMP180;5983;49.966;8.052;2022-10-16T03:33:10;100288.00;;;14.50
11849;BMP180;5983;49.966;8.052;2022-10-16T03:35:38;100305.00;;;14.50
11849;BMP180;5983;49.966;8.052;2022-10-16T03:38:05;100313.00;;;14.50
11849;BMP180;5983;49.966;8.052;2022-10-16T03:40:32;100312.00;;;14.50
11849;BMP180;5983;49.966;8.052;2022-10-16T03:42:59;100324.00;;;14.50
11849;BMP180;5983;49.966;8.052;2022-10-16T03:45:26;100316.00;;;14.50
11849;BMP180;5983;49.966;8.052;2022-10-16T03:47:53;100319.00;;;14.50
11849;BMP180;5983;49.966;8.052;2022-10-16T03:50:20;100313.00;;;14.50
11849;BMP180;5983;49.966;8.052;2022-10-16T03:52:48;100324.00;;;14.50
11849;BMP180;5983;49.966;8.052;2022-10-16T03:55:15;100319.00;;;14.50
11849;BMP180;5983;49.966;8.052;2022-10-16T03:57:42;100314.00;;;14.50
11849;BMP180;5983;49.966;8.052;2022-10-16T04:00:11;100306.00;;;14.50
11849;BMP180;5983;49.966;8.052;2022-10-16T04:02:38;100307.00;;;14.50
11849;BMP180;5983;49.966;8.052;2022-10-16T04:05:06;100312.00;;;14.50
11849;BMP180;5983;49.966;8.052;2022-10-16T04:07:33;100312.00;;;14.40
11849;BMP180;5983;49.966;8.052;2022-10-16T04:10:01;100303.00;;;14.40
11849;BMP180;5983;49.966;8.052;2022-10-16T04:12:28;100300.00;;;14.40
11849;BMP180;5983;49.966;8.052;2022-10-16T04:14:55;100310.00;;;14.40
11849;BMP180;5983;49.966;8.052;2022-10-16T04:17:22;100305.00;;;14.40
11849;BMP180;5983;49.966;8.052;2022-10-16T04:19:49;100308.00;;;14.40
11849;BMP180;5983;49.966;8.052;2022-10-16T04:22:16;100322.00;;;14.40
11849;BMP180;5983;49.966;8.052;2022-10-16T04:24:43;100317.00;;;14.30
11849;BMP180;5983;49.966;8.052;2022-10-16T04:27:11;100320.00;;;14.30
11849;BMP180;5983;49.966;8.052;2022-10-16T04:29:38;100313.00;;;14.30
11849;BMP180;5983;49.966;8.052;2022-10-16T04:32:05;100324.00;;;14.30
11849;BMP180;5983;49.966;8.052;2022-10-16T04:34:34;100333.00;;;14.30
11849;BMP180;5983;49.966;8.052;2022-10-16T04:37:01;100337.00;;;14.30
11849;BMP180;5983;49.966;8.052;2022-10-16T04:39:27;100336.00;;;14.30
11849;BMP180;5983;49.966;8.052;2022-10-16T04:41:54;100345.00;;;14.30
11849;BMP180;5983;49.966;8.052;2022-10-16T04:44:22;100348.00;;;14.30
11849;BMP180;5983;49.966;8.052;2022-10-16T04:46:50;100341.00;;;14.30
11849;BMP180;5983;49.966;8.052;2022-10-16T04:49:18;100349.00;;;14.30
11849;BMP180;5983;49.966;8.052;2022-10-16T04:51:44;100348.00;;;14.30
11849;BMP180;5983;49.966;8.052;2022-10-16T04:54:11;100339.00;;;14.30
11849;BMP180;5983;49.966;8.052;2022-10-16T04:56:38;100340.00;;;14.30
11849;BMP180;5983;49.966;8.052;2022-10-16T04:59:12;100335.00;;;14.30
11849;BMP180;5983;49.966;8.052;2022-10-16T05:01:41;100342.00;;;14.30
11849;BMP180;5983;49.966;8.052;2022-10-16T05:04:08;100325.00;;;14.30
11849;BMP180;5983;49.966;8.052;2022-10-16T05:06:36;100342.00;;;14.30
11849;BMP180;5983;49.966;8.052;2022-10-16T05:09:04;100340.00;;;14.30
11849;BMP180;5983;49.966;8.052;2022-10-16T05:11:31;100339.00;;;14.30
11849;BMP180;5983;49.966;8.052;2022-10-16T05:13:58;100335.00;;;14.30
11849;BMP180;5983;49.966;8.052;2022-10-16T05:16:25;100349.00;;;14.20
11849;BMP180;5983;49.966;8.052;2022-10-16T05:18:54;100341.00;;;14.20
11849;BMP180;5983;49.966;8.052;2022-10-16T05:21:21;100339.00;;;14.20
11849;BMP180;5983;49.966;8.052;2022-10-16T05:23:48;100342.00;;;14.20
11849;BMP180;5983;49.966;8.052;2022-10-16T05:26:15;100345.00;;;14.20
11849;BMP180;5983;49.966;8.052;2022-10-16T05:28:42;100347.00;;;14.20
11849;BMP180;5983;49.966;8.052;2022-10-16T05:31:09;100357.00;;;14.20
11849;BMP180;5983;49.966;8.052;2022-10-16T05:33:37;100358.00;;;14.20
11849;BMP180;5983;49.966;8.052;2022-10-16T05:36:08;100358.00;;;14.10
11849;BMP180;5983;49.966;8.052;2022-10-16T05:38:37;100374.00;;;14.20
11849;BMP180;5983;49.966;8.052;2022-10-16T05:41:05;100377.00;;;14.20
11849;BMP180;5983;49.966;8.052;2022-10-16T05:43:32;100377.00;;;14.20
11849;BMP180;5983;49.966;8.052;2022-10-16T05:46:03;100378.00;;;14.20
11849;BMP180;5983;49.966;8.052;2022-10-16T05:48:31;100385.00;;;14.20
11849;BMP180;5983;49.966;8.052;2022-10-16T05:51:00;100379.00;;;14.20
11849;BMP180;5983;49.966;8.052;2022-10-16T05:53:30;100372.00;;;14.20
11849;BMP180;5983;49.966;8.052;2022-10-16T05:55:58;100380.00;;;14.30
11849;BMP180;5983;49.966;8.052;2022-10-16T05:58:28;100400.00;;;14.30
11849;BMP180;5983;49.966;8.052;2022-10-16T06:00:57;100392.00;;;14.20
11849;BMP180;5983;49.966;8.052;2022-10-16T06:03:25;100397.00;;;14.20
11849;BMP180;5983;49.966;8.052;2022-10-16T06:05:53;100392.00;;;14.30
11849;BMP180;5983;49.966;8.052;2022-10-16T06:08:22;100393.00;;;14.30
11849;BMP180;5983;49.966;8.052;2022-10-16T06:11:00;100383.00;;;14.30
11849;BMP180;5983;49.966;8.052;2022-10-16T06:13:28;100370.00;;;14.30
11849;BMP180;5983;49.966;8.052;2022-10-16T06:15:58;100380.00;;;14.30
11849;BMP180;5983;49.966;8.052;2022-10-16T06:18:25;100378.00;;;14.30
11849;BMP180;5983;49.966;8.052;2022-10-16T06:20:52;100381.00;;;14.30
11849;BMP180;5983;49.966;8.052;2022-10-16T06:23:19;100387.00;;;14.30
11849;BMP180;5983;49.966;8.052;2022-10-16T06:25:46;100403.00;;;14.30
11849;BMP180;5983;49.966;8.052;2022-10-16T06:28:15;100398.00;;;14.20
11849;BMP180;5983;49.966;8.052;2022-10-16T06:30:43;100394.00;;;14.20
11849;BMP180;5983;49.966;8.052;2022-10-16T06:33:11;100399.00;;;14.20
11849;BMP180;5983;49.966;8.052;2022-10-16T06:35:38;100411.00;;;14.30
11849;BMP180;5983;49.966;8.052;2022-10-16T06:38:05;100404.00;;;14.30
11849;BMP180;5983;49.966;8.052;2022-10-16T06:40:32;100405.00;;;14.30
11849;BMP180;5983;49.966;8.052;2022-10-16T06:42:59;100411.00;;;14.30
11849;BMP180;5983;49.966;8.052;2022-10-16T06:45:27;100410.00;;;14.30
11849;BMP180;5983;49.966;8.052;2022-10-16T06:47:54;100427.00;;;14.30
11849;BMP180;5983;49.966;8.052;2022-10-16T06:50:21;100419.00;;;14.40
11849;BMP180;5983;49.966;8.052;2022-10-16T06:52:48;100427.00;;;14.40
11849;BMP180;5983;49.966;8.052;2022-10-16T06:55:15;100438.00;;;14.40
11849;BMP180;5983;49.966;8.052;2022-10-16T06:57:42;100418.00;;;14.40
11849;BMP180;5983;49.966;8.052;2022-10-16T07:00:10;100422.00;;;14.40
11849;BMP180;5983;49.966;8.052;2022-10-16T07:02:39;100417.00;;;14.50
11849;BMP180;5983;49.966;8.052;2022-10-16T07:05:06;100432.00;;;14.50
11849;BMP180;5983;49.966;8.052;2022-10-16T07:07:33;100438.00;;;14.50
11849;BMP180;5983;49.966;8.052;2022-10-16T07:10:00;100432.00;;;14.50
11849;BMP180;5983;49.966;8.052;2022-10-16T07:12:27;100440.00;;;14.50
11849;BMP180;5983;49.966;8.052;2022-10-16T07:14:54;100443.00;;;14.60
11849;BMP180;5983;49.966;8.052;2022-10-16T07:17:21;100458.00;;;14.60
11849;BMP180;5983;49.966;8.052;2022-10-16T07:19:50;100467.00;;;14.60
11849;BMP180;5983;49.966;8.052;2022-10-16T07:22:18;100454.00;;;14.60
11849;BMP180;5983;49.966;8.052;2022-10-16T07:24:46;100454.00;;;14.70
11849;BMP180;5983;49.966;8.052;2022-10-16T07:27:13;100471.00;;;14.70
11849;BMP180;5983;49.966;8.052;2022-10-16T07:29:41;100471.00;;;14.70
11849;BMP180;5983;49.966;8.052;2022-10-16T07:32:08;100476.00;;;14.80
11849;BMP180;5983;49.966;8.052;2022-10-16T07:34:35;100476.00;;;14.80
11849;BMP180;5983;49.966;8.052;2022-10-16T07:37:03;100490.00;;;14.90
11849;BMP180;5983;49.966;8.052;2022-10-16T07:39:30;100495.00;;;14.90
11849;BMP180;5983;49.966;8.052;2022-10-16T07:41:57;100480.00;;;14.90
11849;BMP180;5983;49.966;8.052;2022-10-16T07:44:24;100489.00;;;15.00
11849;BMP180;5983;49.966;8.052;2022-10-16T07:46:51;100496.00;;;15.00
11849;BMP180;5983;49.966;8.052;2022-10-16T07:49:18;100492.00;;;15.00
11849;BMP180;5983;49.966;8.052;2022-10-16T07:51:45;100509.00;;;15.10
11849;BMP180;5983;49.966;8.052;2022-10-16T07:54:13;100515.00;;;15.10
11849;BMP180;5983;49.966;8.052;2022-10-16T07:56:40;100510.00;;;15.20
11849;BMP180;5983;49.966;8.052;2022-10-16T07:59:07;100517.00;;;15.20
11849;BMP180;5983;49.966;8.052;2022-10-16T08:01:34;100534.00;;;15.30
11849;BMP180;5983;49.966;8.052;2022-10-16T08:04:01;100533.00;;;15.30
11849;BMP180;5983;49.966;8.052;2022-10-16T08:06:28;100542.00;;;15.40
11849;BMP180;5983;49.966;8.052;2022-10-16T08:08:55;100553.00;;;15.40
11849;BMP180;5983;49.966;8.052;2022-10-16T08:11:24;100545.00;;;15.50
11849;BMP180;5983;49.966;8.052;2022-10-16T08:13:51;100541.00;;;15.50
11849;BMP180;5983;49.966;8.052;2022-10-16T08:16:18;100548.00;;;15.60
11849;BMP180;5983;49.966;8.052;2022-10-16T08:18:46;100554.00;;;15.70
11849;BMP180;5983;49.966;8.052;2022-10-16T08:21:16;100542.00;;;15.70
11849;BMP180;5983;49.966;8.052;2022-10-16T08:23:43;100551.00;;;15.80
11849;BMP180;5983;49.966;8.052;2022-10-16T08:26:11;100565.00;;;15.80
11849;BMP180;5983;49.966;8.052;2022-10-16T08:28:40;100561.00;;;15.80
11849;BMP180;5983;49.966;8.052;2022-10-16T08:31:08;100570.00;;;15.80
11849;BMP180;5983;49.966;8.052;2022-10-16T08:33:36;100579.00;;;15.80
11849;BMP180;5983;49.966;8.052;2022-10-16T08:36:05;100587.00;;;15.80
11849;BMP180;5983;49.966;8.052;2022-10-16T08:38:32;100580.00;;;15.80
11849;BMP180;5983;49.966;8.052;2022-10-16T08:44:33;100575.00;;;15.80
11849;BMP180;5983;49.966;8.052;2022-10-16T08:47:13;100574.00;;;15.80
11849;BMP180;5983;49.966;8.052;2022-10-16T08:49:56;100582.00;;;15.80
11849;BMP180;5983;49.966;8.052;2022-10-16T08:52:29;100589.00;;;15.80
11849;BMP180;5983;49.966;8.052;2022-10-16T08:54:57;100598.00;;;15.70
11849;BMP180;5983;49.966;8.052;2022-10-16T08:57:26;100590.00;;;15.70
11849;BMP180;5983;49.966;8.052;2022-10-16T09:00:00;100590.00;;;15.70
11849;BMP180;5983;49.966;8.052;2022-10-16T09:02:37;100605.00;;;15.70
11849;BMP180;5983;49.966;8.052;2022-10-16T09:05:24;100612.00;;;15.70
11849;BMP180;5983;49.966;8.052;2022-10-16T09:08:05;100609.00;;;15.70
11849;BMP180;5983;49.966;8.052;2022-10-16T09:10:46;100605.00;;;15.80
11849;BMP180;5983;49.966;8.052;2022-10-16T09:13:24;100617.00;;;15.80
11849;BMP180;5983;49.966;8.052;2022-10-16T09:16:12;100616.00;;;15.90
11849;BMP180;5983;49.966;8.052;2022-10-16T09:18:49;100620.00;;;15.90
11849;BMP180;5983;49.966;8.052;2022-10-16T09:21:23;100623.00;;;16.00
11849;BMP180;5983;49.966;8.052;2022-10-16T09:23:51;100631.00;;;16.00
11849;BMP180;5983;49.966;8.052;2022-10-16T09:26:19;100618.00;;;16.10
11849;BMP180;5983;49.966;8.052;2022-10-16T09:28:47;100634.00;;;16.10
11849;BMP180;5983;49.966;8.052;2022-10-16T09:31:20;100631.00;;;16.10
11849;BMP180;5983;49.966;8.052;2022-10-16T09:33:53;100631.00;;;16.20
11849;BMP180;5983;49.966;8.052;2022-10-16T09:36:21;100637.00;;;16.20
11849;BMP180;5983;49.966;8.052;2022-10-16T09:38:49;100629.00;;;16.30
11849;BMP180;5983;49.966;8.052;2022-10-16T09:41:21;100638.00;;;16.40
11849;BMP180;5983;49.966;8.052;2022-10-16T09:43:54;100636.00;;;16.50
11849;BMP180;5983;49.966;8.052;2022-10-16T09:46:27;100635.00;;;16.70
11849;BMP180;5983;49.966;8.052;2022-10-16T09:48:58;100641.00;;;16.70
11849;BMP180;5983;49.966;8.052;2022-10-16T09:51:28;100645.00;;;16.80
11849;BMP180;5983;49.966;8.052;2022-10-16T09:53:58;100654.00;;;16.90
11849;BMP180;5983;49.966;8.052;2022-10-16T09:56:28;100657.00;;;17.00
11849;BMP180;5983;49.966;8.052;2022-10-16T09:58:58;100653.00;;;17.00
11849;BMP180;5983;49.966;8.052;2022-10-16T10:01:35;100649.00;;;17.20
11849;BMP180;5983;49.966;8.052;2022-10-16T10:04:02;100644.00;;;17.30
11849;BMP180;5983;49.966;8.052;2022-10-16T10:06:32;100650.00;;;17.60
11849;BMP180;5983;49.966;8.052;2022-10-16T10:09:13;100646.00;;;18.10
11849;BMP180;5983;49.966;8.052;2022-10-16T10:11:50;100647.00;;;18.40
11849;BMP180;5983;49.966;8.052;2022-10-16T10:14:26;100646.00;;;18.60
11849;BMP180;5983;49.966;8.052;2022-10-16T10:17:13;100648.00;;;18.60
11849;BMP180;5983;49.966;8.052;2022-10-16T10:19:47;100652.00;;;18.50
11849;BMP180;5983;49.966;8.052;2022-10-16T10:22:30;100645.00;;;18.40
11849;BMP180;5983;49.966;8.052;2022-10-16T10:25:14;100658.00;;;18.40
11849;BMP180;5983;49.966;8.052;2022-10-16T10:27:58;100653.00;;;18.50
11849;BMP180;5983;49.966;8.052;2022-10-16T10:30:37;100658.00;;;18.60
11849;BMP180;5983;49.966;8.052;2022-10-16T10:33:23;100655.00;;;18.60
11849;BMP180;5983;49.966;8.052;2022-10-16T10:36:05;100650.00;;;18.50
11849;BMP180;5983;49.966;8.052;2022-10-16T10:38:43;100655.00;;;18.40
11849;BMP180;5983;49.966;8.052;2022-10-16T10:41:38;100654.00;;;18.50
11849;BMP180;5983;49.966;8.052;2022-10-16T10:44:16;100661.00;;;18.50
11849;BMP180;5983;49.966;8.052;2022-10-16T10:46:51;100655.00;;;18.50
11849;BMP180;5983;49.966;8.052;2022-10-16T10:49:48;100656.00;;;18.40
11849;BMP180;5983;49.966;8.052;2022-10-16T10:52:37;100655.00;;;18.40
11849;BMP180;5983;49.966;8.052;2022-10-16T10:55:18;100659.00;;;18.40
11849;BMP180;5983;49.966;8.052;2022-10-16T10:58:23;100654.00;;;18.40
11849;BMP180;5983;49.966;8.052;2022-10-16T11:01:02;100658.00;;;18.50
11849;BMP180;5983;49.966;8.052;2022-10-16T11:04:15;100650.00;;;18.60
11849;BMP180;5983;49.966;8.052;2022-10-16T11:06:55;100648.00;;;18.60
11849;BMP180;5983;49.966;8.052;2022-10-16T11:09:30;100651.00;;;18.60
11849;BMP180;5983;49.966;8.052;2022-10-16T11:12:05;100654.00;;;18.60
11849;BMP180;5983;49.966;8.052;2022-10-16T11:14:41;100648.00;;;18.80
11849;BMP180;5983;49.966;8.052;2022-10-16T11:17:15;100653.00;;;18.90
11849;BMP180;5983;49.966;8.052;2022-10-16T11:19:48;100648.00;;;19.00
11849;BMP180;5983;49.966;8.052;2022-10-16T11:22:22;100637.00;;;18.90
11849;BMP180;5983;49.966;8.052;2022-10-16T11:24:57;100648.00;;;18.90
11849;BMP180;5983;49.966;8.052;2022-10-16T11:27:36;100657.00;;;19.00
11849;BMP180;5983;49.966;8.052;2022-10-16T11:30:14;100644.00;;;18.90
11849;BMP180;5983;49.966;8.052;2022-10-16T11:32:56;100645.00;;;19.10
11849;BMP180;5983;49.966;8.052;2022-10-16T11:35:39;100641.00;;;19.50
11849;BMP180;5983;49.966;8.052;2022-10-16T11:38:19;100635.00;;;21.20
11849;BMP180;5983;49.966;8.052;2022-10-16T11:40:53;100642.00;;;22.00
11849;BMP180;5983;49.966;8.052;2022-10-16T11:43:29;100637.00;;;21.60
11849;BMP180;5983;49.966;8.052;2022-10-16T11:46:05;100639.00;;;21.40
11849;BMP180;5983;49.966;8.052;2022-10-16T11:48:41;100645.00;;;21.00
11849;BMP180;5983;49.966;8.052;2022-10-16T11:51:19;100640.00;;;20.60
11849;BMP180;5983;49.966;8.052;2022-10-16T11:54:00;100641.00;;;20.30
11849;BMP180;5983;49.966;8.052;2022-10-16T11:56:32;100648.00;;;20.00
11849;BMP180;5983;49.966;8.052;2022-10-16T11:59:03;100646.00;;;19.80
11849;BMP180;5983;49.966;8.052;2022-10-16T12:01:39;100642.00;;;19.80
11849;BMP180;5983;49.966;8.052;2022-10-16T12:04:21;100641.00;;;19.90
11849;BMP180;5983;49.966;8.052;2022-10-16T12:06:55;100646.00;;;20.00
11849;BMP180;5983;49.966;8.052;2022-10-16T12:09:30;100652.00;;;19.90
11849;BMP180;5983;49.966;8.052;2022-10-16T12:11:59;100639.00;;;19.80
11849;BMP180;5983;49.966;8.052;2022-10-16T12:14:44;100645.00;;;19.70
11849;BMP180;5983;49.966;8.052;2022-10-16T12:17:27;100655.00;;;19.60
11849;BMP180;5983;49.966;8.052;2022-10-16T12:19:59;100662.00;;;19.60
11849;BMP180;5983;49.966;8.052;2022-10-16T12:22:29;100650.00;;;19.60
11849;BMP180;5983;49.966;8.052;2022-10-16T12:24:59;100654.00;;;19.50
11849;BMP180;5983;49.966;8.052;2022-10-16T12:27:30;100653.00;;;19.50
11849;BMP180;5983;49.966;8.052;2022-10-16T12:29:59;100650.00;;;19.60
11849;BMP180;5983;49.966;8.052;2022-10-16T12:32:32;100653.00;;;19.80
11849;BMP180;5983;49.966;8.052;2022-10-16T12:35:01;100648.00;;;20.00
11849;BMP180;5983;49.966;8.052;2022-10-16T12:37:33;100657.00;;;19.90
11849;BMP180;5983;49.966;8.052;2022-10-16T12:40:14;100657.00;;;19.80
11849;BMP180;5983;49.966;8.052;2022-10-16T12:42:41;100655.00;;;19.70
11849;BMP180;5983;49.966;8.052;2022-10-16T12:45:27;100654.00;;;19.60
11849;BMP180;5983;49.966;8.052;2022-10-16T12:47:56;100655.00;;;19.70
11849;BMP180;5983;49.966;8.052;2022-10-16T12:50:31;100661.00;;;19.80
11849;BMP180;5983;49.966;8.052;2022-10-16T12:52:59;100664.00;;;20.00
11849;BMP180;5983;49.966;8.052;2022-10-16T12:55:43;100674.00;;;20.10
11849;BMP180;5983;49.966;8.052;2022-10-16T12:58:42;100659.00;;;20.00
11849;BMP180;5983;49.966;8.052;2022-10-16T13:01:36;100660.00;;;19.90
11849;BMP180;5983;49.966;8.052;2022-10-16T13:04:34;100658.00;;;19.80
11849;BMP180;5983;49.966;8.052;2022-10-16T13:07:29;100666.00;;;19.80
11849;BMP180;5983;49.966;8.052;2022-10-16T13:10:11;100677.00;;;19.80
11849;BMP180;5983;49.966;8.052;2022-10-16T13:13:13;100671.00;;;19.60
11849;BMP180;5983;49.966;8.052;2022-10-16T13:15:58;100670.00;;;19.40
11849;BMP180;5983;49.966;8.052;2022-10-16T13:18:36;100676.00;;;19.30
11849;BMP180;5983;49.966;8.052;2022-10-16T13:21:30;100679.00;;;19.20
11849;BMP180;5983;49.966;8.052;2022-10-16T13:24:10;100671.00;;;19.10
11849;BMP180;5983;49.966;8.052;2022-10-16T13:26:45;100671.00;;;19.10
11849;BMP180;5983;49.966;8.052;2022-10-16T13:29:16;100660.00;;;19.00
11849;BMP180;5983;49.966;8.052;2022-10-16T13:31:44;100659.00;;;19.00
11849;BMP180;5983;49.966;8.052;2022-10-16T13:34:16;100654.00;;;19.00
11849;BMP180;5983;49.966;8.052;2022-10-16T13:36:48;100652.00;;;19.00
11849;BMP180;5983;49.966;8.052;2022-10-16T13:39:23;100643.00;;;19.00
11849;BMP180;5983;49.966;8.052;2022-10-16T13:42:05;100635.00;;;18.90
11849;BMP180;5983;49.966;8.052;2022-10-16T13:44:40;100630.00;;;18.90
11849;BMP180;5983;49.966;8.052;2022-10-16T13:47:17;100623.00;;;18.90
11849;BMP180;5983;49.966;8.052;2022-10-16T13:49:45;100644.00;;;18.90
11849;BMP180;5983;49.966;8.052;2022-10-16T13:52:20;100643.00;;;18.90
11849;BMP180;5983;49.966;8.052;2022-10-16T13:54:48;100655.00;;;18.90
11849;BMP180;5983;49.966;8.052;2022-10-16T13:57:15;100658.00;;;18.80
11849;BMP180;5983;49.966;8.052;2022-10-16T13:59:44;100653.00;;;18.90
11849;BMP180;5983;49.966;8.052;2022-10-16T14:02:22;100657.00;;;18.90
11849;BMP180;5983;49.966;8.052;2022-10-16T14:04:52;100657.00;;;18.90
11849;BMP180;5983;49.966;8.052;2022-10-16T14:07:24;100650.00;;;19.00
11849;BMP180;5983;49.966;8.052;2022-10-16T14:09:53;100652.00;;;19.00
11849;BMP180;5983;49.966;8.052;2022-10-16T14:12:23;100658.00;;;19.00
11849;BMP180;5983;49.966;8.052;2022-10-16T14:14:54;100661.00;;;19.10
11849;BMP180;5983;49.966;8.052;2022-10-16T14:17:25;100663.00;;;19.10
11849;BMP180;5983;49.966;8.052;2022-10-16T14:19:56;100653.00;;;19.10
11849;BMP180;5983;49.966;8.052;2022-10-16T14:22:32;100661.00;;;19.10
11849;BMP180;5983;49.966;8.052;2022-10-16T14:25:00;100651.00;;;19.10
11849;BMP180;5983;49.966;8.052;2022-10-16T14:27:32;100655.00;;;19.00
11849;BMP180;5983;49.966;8.052;2022-10-16T14:30:16;100655.00;;;19.00
11849;BMP180;5983;49.966;8.052;2022-10-16T14:32:54;100658.00;;;19.00
11849;BMP180;5983;49.966;8.052;2022-10-16T14:35:25;100652.00;;;18.90
11849;BMP180;5983;49.966;8.052;2022-10-16T14:37:54;100655.00;;;18.90
11849;BMP180;5983;49.966;8.052;2022-10-16T14:40:25;100656.00;;;18.90